createdAt,value
2018-09-02T00:02:20.475Z,11.60
2018-09-02T00:04:47.211Z,11.50
2018-09-02T00:07:13.913Z,11.50
2018-09-02T00:09:39.914Z,11.50
2018-09-02T00:12:05.886Z,11.50
2018-09-02T00:14:31.943Z,11.50
2018-09-02T00:16:57.904Z,11.50
2018-09-02T00:19:23.902Z,11.50
2018-09-02T00:21:49.874Z,11.60
2018-09-02T00:24:15.834Z,11.60
2018-09-02T00:26:42.553Z,11.40
2018-09-02T00:29:08.545Z,11.40
2018-09-02T00:31:34.583Z,11.40
2018-09-02T00:34:00.583Z,11.40
2018-09-02T00:36:26.582Z,11.30
2018-09-02T00:38:52.553Z,11.30
2018-09-02T00:41:18.572Z,11.30
2018-09-02T00:43:44.513Z,11.30
2018-09-02T00:46:10.475Z,11.20
2018-09-02T00:48:36.466Z,11.30
2018-09-02T00:51:03.166Z,11.30
2018-09-02T00:53:29.169Z,11.30
2018-09-02T00:55:55.133Z,11.30
2018-09-02T00:58:21.128Z,11.20
2018-09-02T01:00:47.121Z,11.20
2018-09-02T01:03:13.153Z,11.20
2018-09-02T01:05:39.106Z,11.20
2018-09-02T01:08:05.099Z,11.20
2018-09-02T01:10:31.080Z,11.10
2018-09-02T01:12:57.904Z,11.10
2018-09-02T01:15:24.645Z,11.10
2018-09-02T01:17:50.613Z,11.10
2018-09-02T01:20:16.612Z,11.10
2018-09-02T01:22:43.316Z,11.10
2018-09-02T01:25:09.332Z,11.00
2018-09-02T01:27:35.296Z,11.10
2018-09-02T01:30:02.041Z,11.00
2018-09-02T01:32:28.758Z,11.00
2018-09-02T01:34:54.780Z,11.00
2018-09-02T01:37:20.740Z,11.00
2018-09-02T01:39:47.436Z,10.90
2018-09-02T01:42:13.408Z,11.00
2018-09-02T01:44:39.368Z,10.90
2018-09-02T01:47:05.373Z,10.90
2018-09-02T01:49:31.314Z,10.90
2018-09-02T01:51:57.312Z,10.90
2018-09-02T01:54:23.282Z,10.90
2018-09-02T01:56:49.254Z,10.80
2018-09-02T01:59:15.217Z,10.80
2018-09-02T02:01:41.208Z,10.80
2018-09-02T02:04:07.902Z,10.70
2018-09-02T02:06:34.641Z,10.80
2018-09-02T02:09:01.343Z,10.80
2018-09-02T02:11:27.417Z,10.70
2018-09-02T02:13:54.122Z,10.70
2018-09-02T02:16:20.091Z,10.70
2018-09-02T02:18:46.074Z,10.60
2018-09-02T02:21:12.015Z,10.70
2018-09-02T02:23:37.996Z,10.70
2018-09-02T02:26:03.970Z,10.60
2018-09-02T02:28:30.708Z,10.60
2018-09-02T02:30:57.415Z,10.60
2018-09-02T02:33:23.423Z,10.50
2018-09-02T02:35:49.390Z,10.60
2018-09-02T02:38:15.386Z,10.50
2018-09-02T02:40:41.354Z,10.50
2018-09-02T02:43:08.110Z,10.60
2018-09-02T02:45:34.887Z,10.50
2018-09-02T02:48:01.001Z,10.60
2018-09-02T02:50:26.956Z,10.50
2018-09-02T02:52:52.909Z,10.50
2018-09-02T02:55:19.615Z,10.40
2018-09-02T02:57:45.593Z,10.40
2018-09-02T03:00:11.593Z,10.40
2018-09-02T03:02:37.560Z,10.40
2018-09-02T03:05:03.554Z,10.50
2018-09-02T03:07:29.518Z,10.40
2018-09-02T03:09:55.518Z,10.50
2018-09-02T03:12:21.478Z,10.40
2018-09-02T03:14:48.240Z,10.30
2018-09-02T03:17:14.198Z,10.30
2018-09-02T03:19:40.180Z,10.30
2018-09-02T03:22:06.926Z,10.30
2018-09-02T03:24:32.912Z,10.30
2018-09-02T03:26:58.926Z,10.40
2018-09-02T03:29:24.921Z,10.50
2018-09-02T03:31:50.904Z,10.50
2018-09-02T03:34:17.619Z,10.50
2018-09-02T03:36:43.616Z,10.50
2018-09-02T03:39:09.563Z,10.50
2018-09-02T03:41:35.568Z,10.50
2018-09-02T03:44:01.552Z,10.50
2018-09-02T03:46:27.644Z,10.50
2018-09-02T03:48:53.606Z,10.50
2018-09-02T03:51:19.611Z,10.50
2018-09-02T03:53:46.360Z,10.60
2018-09-02T03:56:12.375Z,10.60
2018-09-02T03:58:38.371Z,10.70
2018-09-02T04:01:04.370Z,10.80
2018-09-02T04:03:30.366Z,10.90
2018-09-02T04:05:57.076Z,11.00
2018-09-02T04:08:23.903Z,11.10
2018-09-02T04:10:49.891Z,11.00
2018-09-02T04:13:15.900Z,11.10
2018-09-02T04:15:41.897Z,11.10
2018-09-02T04:18:07.879Z,11.10
2018-09-02T04:20:33.870Z,11.10
2018-09-02T04:22:59.850Z,11.20
2018-09-02T04:25:25.807Z,11.20
2018-09-02T04:27:52.498Z,11.10
2018-09-02T04:30:18.511Z,11.10
2018-09-02T04:32:44.529Z,11.10
2018-09-02T04:35:10.513Z,11.20
2018-09-02T04:37:36.469Z,11.30
2018-09-02T04:40:02.461Z,11.30
2018-09-02T04:42:28.434Z,11.20
2018-09-02T04:44:54.392Z,11.30
2018-09-02T04:47:21.102Z,11.40
2018-09-02T04:49:47.115Z,11.40
2018-09-02T04:52:13.062Z,11.40
2018-09-02T04:54:39.016Z,11.30
2018-09-02T04:57:05.014Z,11.30
2018-09-02T04:59:31.719Z,11.30
2018-09-02T05:01:57.732Z,11.30
2018-09-02T05:04:23.697Z,11.40
2018-09-02T05:06:49.679Z,11.40
2018-09-02T05:09:15.628Z,11.40
2018-09-02T05:11:41.596Z,11.40
2018-09-02T05:14:07.640Z,11.50
2018-09-02T05:16:33.590Z,11.50
2018-09-02T05:18:59.588Z,11.50
2018-09-02T05:21:25.582Z,11.60
2018-09-02T05:23:51.585Z,11.60
2018-09-02T05:26:18.303Z,11.70
2018-09-02T05:28:44.375Z,11.70
2018-09-02T05:31:11.068Z,11.80
2018-09-02T05:33:37.025Z,11.70
2018-09-02T05:36:03.016Z,11.80
2018-09-02T05:38:28.969Z,11.90
2018-09-02T05:40:54.976Z,12.00
2018-09-02T05:43:20.940Z,12.10
2018-09-02T05:45:46.924Z,12.10
2018-09-02T05:48:13.653Z,12.30
2018-09-02T05:50:39.677Z,12.30
2018-09-02T05:53:05.653Z,12.40
2018-09-02T05:55:31.601Z,12.30
2018-09-02T05:57:57.606Z,12.40
2018-09-02T06:00:23.590Z,12.50
2018-09-02T06:02:50.330Z,12.60
2018-09-02T06:05:17.050Z,12.70
2018-09-02T06:07:43.039Z,12.60
2018-09-02T06:10:09.000Z,12.70
2018-09-02T06:12:34.983Z,12.80
2018-09-02T06:15:00.944Z,12.90
2018-09-02T06:17:26.975Z,13.00
2018-09-02T06:19:52.912Z,13.00
2018-09-02T06:22:18.920Z,13.10
2018-09-02T06:24:44.863Z,13.20
2018-09-02T06:27:10.865Z,13.30
2018-09-02T06:29:36.812Z,13.50
2018-09-02T06:32:02.892Z,13.50
2018-09-02T06:34:28.836Z,13.60
2018-09-02T06:36:54.784Z,13.80
2018-09-02T06:39:20.796Z,14.40
2018-09-02T06:41:47.493Z,16.60
2018-09-02T06:44:13.458Z,16.60
2018-09-02T06:46:40.157Z,18.50
2018-09-02T06:49:06.143Z,18.50
2018-09-02T06:51:32.108Z,19.30
2018-09-02T06:53:58.198Z,19.50
2018-09-02T06:56:24.171Z,20.00
2018-09-02T06:58:50.136Z,20.80
2018-09-02T07:01:16.130Z,21.20
2018-09-02T07:03:42.837Z,22.10
2018-09-02T07:06:08.878Z,22.10
2018-09-02T07:08:34.850Z,22.40
2018-09-02T07:11:00.846Z,22.50
2018-09-02T07:13:26.827Z,22.60
2018-09-02T07:15:52.817Z,22.90
2018-09-02T07:18:18.810Z,23.40
2018-09-02T07:20:44.830Z,23.60
2018-09-02T07:23:10.824Z,23.90
2018-09-02T07:25:37.662Z,24.30
2018-09-02T07:28:03.637Z,24.30
2018-09-02T07:30:29.606Z,24.40
2018-09-02T07:32:55.605Z,24.70
2018-09-02T07:35:21.590Z,24.80
2018-09-02T07:37:48.342Z,25.50
2018-09-02T07:40:14.308Z,25.40
2018-09-02T07:42:40.279Z,25.00
2018-09-02T07:45:06.260Z,25.40
2018-09-02T07:47:32.265Z,25.80
2018-09-02T07:49:58.265Z,25.50
2018-09-02T07:52:24.258Z,25.60
2018-09-02T07:54:50.280Z,25.90
2018-09-02T07:57:17.004Z,26.00
2018-09-02T07:59:42.980Z,26.00
2018-09-02T08:02:08.951Z,26.50
2018-09-02T08:04:34.942Z,26.60
2018-09-02T08:07:00.944Z,26.90
2018-09-02T08:09:26.933Z,26.70
2018-09-02T08:11:52.926Z,26.70
2018-09-02T08:14:18.989Z,27.00
2018-09-02T08:16:45.754Z,27.30
2018-09-02T08:19:11.724Z,27.30
2018-09-02T08:21:37.728Z,27.50
2018-09-02T08:24:03.708Z,27.90
2018-09-02T08:26:29.733Z,28.00
2018-09-02T08:28:56.436Z,27.90
2018-09-02T08:31:22.439Z,27.80
2018-09-02T08:33:48.440Z,27.70
2018-09-02T08:36:14.465Z,27.70
2018-09-02T08:38:40.500Z,27.90
2018-09-02T08:41:06.497Z,27.60
2018-09-02T08:43:32.538Z,27.60
2018-09-02T08:45:58.479Z,27.70
2018-09-02T08:48:24.472Z,28.10
2018-09-02T08:50:50.463Z,28.20
2018-09-02T08:53:16.464Z,28.10
2018-09-02T08:55:42.436Z,28.30
2018-09-02T08:58:09.200Z,28.20
2018-09-02T09:00:35.169Z,28.20
2018-09-02T09:03:01.151Z,28.30
2018-09-02T09:05:27.146Z,27.70
2018-09-02T09:07:54.074Z,28.00
2018-09-02T09:10:19.916Z,28.00
2018-09-02T09:12:45.906Z,27.60
2018-09-02T09:15:18.813Z,28.10
2018-09-02T09:17:44.817Z,28.60
2018-09-02T09:20:10.869Z,28.80
2018-09-02T09:22:36.899Z,28.40
2018-09-02T09:25:03.660Z,28.20
2018-09-02T09:27:29.634Z,28.20
2018-09-02T09:29:55.661Z,28.50
2018-09-02T09:32:21.706Z,28.30
2018-09-02T09:34:47.646Z,27.60
2018-09-02T09:37:13.610Z,28.40
2018-09-02T09:39:39.598Z,28.40
2018-09-02T09:42:05.560Z,29.00
2018-09-02T09:44:31.549Z,29.20
2018-09-02T09:46:57.564Z,29.20
2018-09-02T09:49:23.527Z,29.20
2018-09-02T09:51:49.514Z,29.20
2018-09-02T09:54:15.493Z,28.60
2018-09-02T09:56:42.210Z,28.40
2018-09-02T09:59:08.172Z,28.30
2018-09-02T10:01:34.233Z,27.80
2018-09-02T10:04:00.166Z,27.50
2018-09-02T10:06:26.151Z,27.00
2018-09-02T10:08:52.148Z,27.20
2018-09-02T10:11:18.132Z,26.80
2018-09-02T10:13:44.136Z,26.60
2018-09-02T10:16:10.104Z,26.50
2018-09-02T10:18:36.814Z,26.70
2018-09-02T10:21:02.939Z,26.60
2018-09-02T10:23:29.713Z,26.10
2018-09-02T10:25:55.747Z,26.00
2018-09-02T10:28:21.735Z,25.50
2018-09-02T10:30:47.678Z,24.70
2018-09-02T10:33:13.796Z,24.10
2018-09-02T10:35:40.168Z,24.00
2018-09-02T10:38:06.136Z,23.40
2018-09-02T10:40:32.114Z,22.70
2018-09-02T10:42:58.131Z,22.60
2018-09-02T10:45:24.111Z,22.90
2018-09-02T10:47:50.077Z,23.20
2018-09-02T10:50:16.065Z,23.40
2018-09-02T10:52:42.041Z,23.30
2018-09-02T10:55:08.042Z,23.40
2018-09-02T10:57:34.784Z,23.30
2018-09-02T11:00:01.529Z,23.30
2018-09-02T11:02:28.222Z,23.40
2018-09-02T11:04:54.166Z,23.40
2018-09-02T11:07:20.144Z,23.20
2018-09-02T11:09:46.167Z,22.90
2018-09-02T11:12:12.149Z,22.80
2018-09-02T11:14:38.884Z,22.70
2018-09-02T11:17:04.919Z,22.70
2018-09-02T11:19:30.943Z,22.90
2018-09-02T11:21:57.664Z,23.50
2018-09-02T11:24:23.636Z,23.50
2018-09-02T11:26:49.784Z,23.00
2018-09-02T11:29:15.762Z,23.20
2018-09-02T11:31:41.734Z,23.10
2018-09-02T11:34:07.854Z,23.10
2018-09-02T11:36:33.787Z,23.10
2018-09-02T11:39:00.557Z,23.30
2018-09-02T11:41:27.309Z,23.10
2018-09-02T11:43:54.040Z,23.00
2018-09-02T11:46:20.001Z,23.00
2018-09-02T11:48:45.997Z,23.10
2018-09-02T11:51:12.001Z,23.10
2018-09-02T11:53:38.744Z,23.50
2018-09-02T11:56:04.699Z,23.50
2018-09-02T11:58:30.674Z,23.60
2018-09-02T12:00:56.666Z,23.20
2018-09-02T12:03:22.636Z,22.90
2018-09-02T12:05:49.408Z,23.00
2018-09-02T12:08:15.401Z,23.00
2018-09-02T12:10:42.194Z,23.20
2018-09-02T12:13:08.198Z,23.20
2018-09-02T12:15:34.248Z,23.40
2018-09-02T12:18:00.234Z,23.40
2018-09-02T12:20:26.241Z,23.40
2018-09-02T12:22:52.951Z,23.40
2018-09-02T12:25:18.953Z,23.40
2018-09-02T12:27:44.931Z,23.40
2018-09-02T12:30:10.948Z,23.20
2018-09-02T12:32:37.656Z,22.60
2018-09-02T12:35:03.651Z,22.60
2018-09-02T12:37:31.866Z,22.40
2018-09-02T12:39:58.253Z,22.30
2018-09-02T12:42:24.233Z,22.30
2018-09-02T12:44:50.207Z,22.10
2018-09-02T12:47:16.197Z,22.30
2018-09-02T12:49:42.172Z,22.80
2018-09-02T12:52:08.189Z,23.00
2018-09-02T12:54:34.155Z,23.00
2018-09-02T12:57:00.102Z,22.90
2018-09-02T12:59:26.062Z,22.60
2018-09-02T13:01:52.070Z,22.50
2018-09-02T13:04:18.047Z,22.40
2018-09-02T13:06:44.759Z,22.40
2018-09-02T13:09:10.749Z,22.40
2018-09-02T13:11:36.741Z,22.40
2018-09-02T13:14:03.466Z,22.50
2018-09-02T13:16:29.439Z,22.50
2018-09-02T13:18:55.481Z,22.50
2018-09-02T13:21:22.233Z,22.50
2018-09-02T13:23:48.267Z,22.50
2018-09-02T13:26:14.287Z,22.40
2018-09-02T13:28:41.480Z,22.20
2018-09-02T13:31:07.456Z,22.00
2018-09-02T13:33:33.454Z,21.80
2018-09-02T13:35:59.449Z,21.60
2018-09-02T13:38:25.431Z,21.50
2018-09-02T13:40:51.403Z,21.60
2018-09-02T13:43:17.407Z,21.60
2018-09-02T13:45:43.384Z,21.90
2018-09-02T13:48:09.351Z,22.10
2018-09-02T13:50:36.110Z,22.60
2018-09-02T13:53:02.083Z,22.50
2018-09-02T13:55:28.090Z,22.60
2018-09-02T13:57:54.082Z,22.50
2018-09-02T14:00:20.959Z,22.30
2018-09-02T14:02:48.052Z,22.20
2018-09-02T14:05:14.781Z,22.10
2018-09-02T14:07:40.755Z,22.10
2018-09-02T14:10:07.012Z,22.00
2018-09-02T14:12:32.976Z,22.10
2018-09-02T14:14:58.942Z,22.00
2018-09-02T14:17:24.948Z,21.70
2018-09-02T14:19:50.952Z,21.60
2018-09-02T14:22:16.997Z,21.70
2018-09-02T14:24:43.065Z,22.00
2018-09-02T14:27:09.060Z,22.30
2018-09-02T14:29:35.033Z,22.40
2018-09-02T14:32:01.021Z,22.20
2018-09-02T14:34:26.990Z,22.00
2018-09-02T14:36:53.712Z,21.60
2018-09-02T14:39:20.392Z,21.60
2018-09-02T14:41:46.372Z,21.60
2018-09-02T14:44:13.097Z,21.60
2018-09-02T14:46:39.083Z,21.50
2018-09-02T14:49:05.053Z,21.50
2018-09-02T14:51:31.053Z,21.40
2018-09-02T14:53:57.058Z,21.30
2018-09-02T14:56:23.043Z,21.20
2018-09-02T14:58:49.061Z,21.10
2018-09-02T15:01:15.773Z,21.20
2018-09-02T15:03:41.794Z,21.10
2018-09-02T15:06:07.749Z,21.20
2018-09-02T15:08:34.693Z,21.40
2018-09-02T15:11:01.394Z,21.30
2018-09-02T15:13:27.398Z,21.30
2018-09-02T15:15:53.344Z,21.30
2018-09-02T15:18:19.374Z,21.30
2018-09-02T15:20:45.356Z,21.30
2018-09-02T15:23:11.324Z,21.10
2018-09-02T15:25:38.083Z,21.00
2018-09-02T15:28:04.815Z,21.00
2018-09-02T15:30:31.546Z,20.90
2018-09-02T15:32:57.525Z,20.90
2018-09-02T15:35:23.496Z,20.80
2018-09-02T15:37:49.471Z,20.80
2018-09-02T15:40:15.467Z,20.80
2018-09-02T15:42:41.467Z,20.90
2018-09-02T15:45:07.426Z,20.90
2018-09-02T15:47:33.413Z,21.00
2018-09-02T15:49:59.362Z,21.00
2018-09-02T15:52:25.391Z,21.00
2018-09-02T15:54:52.118Z,21.00
2018-09-02T15:57:18.815Z,21.00
2018-09-02T15:59:44.786Z,21.00
2018-09-02T16:02:10.789Z,21.00
2018-09-02T16:04:36.760Z,21.00
2018-09-02T16:07:02.706Z,21.00
2018-09-02T16:09:28.686Z,20.90
2018-09-02T16:11:54.675Z,20.80
2018-09-02T16:14:20.667Z,20.80
2018-09-02T16:16:46.620Z,20.80
2018-09-02T16:19:13.390Z,20.80
2018-09-02T16:21:39.411Z,20.80
2018-09-02T16:24:05.376Z,20.80
2018-09-02T16:26:31.389Z,20.80
2018-09-02T16:28:57.353Z,20.70
2018-09-02T16:31:23.353Z,20.70
2018-09-02T16:33:49.350Z,20.60
2018-09-02T16:36:15.343Z,20.60
2018-09-02T16:38:41.330Z,20.60
2018-09-02T16:41:07.350Z,20.60
2018-09-02T16:43:33.357Z,20.50
2018-09-02T16:45:59.357Z,20.50
2018-09-02T16:48:25.341Z,20.40
2018-09-02T16:50:52.056Z,20.40
2018-09-02T16:53:18.050Z,20.40
2018-09-02T16:55:43.996Z,20.40
2018-09-02T16:58:09.967Z,20.30
2018-09-02T17:00:36.671Z,20.20
2018-09-02T17:03:02.638Z,20.20
2018-09-02T17:05:28.638Z,20.20
2018-09-02T17:07:55.338Z,20.10
2018-09-02T17:10:21.328Z,20.10
2018-09-02T17:12:47.357Z,20.10
2018-09-02T17:15:14.071Z,20.10
2018-09-02T17:17:40.779Z,20.20
2018-09-02T17:20:06.784Z,20.10
2018-09-02T17:22:32.741Z,20.20
2018-09-02T17:24:58.741Z,20.00
2018-09-02T17:27:24.716Z,19.80
2018-09-02T17:29:51.455Z,19.70
2018-09-02T17:32:17.431Z,19.70
2018-09-02T17:34:43.433Z,19.60
2018-09-02T17:37:09.400Z,19.50
2018-09-02T17:39:35.402Z,19.40
2018-09-02T17:42:01.389Z,19.30
2018-09-02T17:44:27.419Z,19.20
2018-09-02T17:46:53.412Z,19.10
2018-09-02T17:49:19.397Z,18.90
2018-09-02T17:51:45.390Z,18.80
2018-09-02T17:54:11.344Z,18.80
2018-09-02T17:56:37.359Z,18.70
2018-09-02T17:59:03.346Z,18.60
2018-09-02T18:01:29.341Z,18.70
2018-09-02T18:03:56.087Z,18.70
2018-09-02T18:06:22.792Z,18.70
2018-09-02T18:08:48.765Z,18.60
2018-09-02T18:11:14.766Z,18.60
2018-09-02T18:13:40.733Z,18.60
2018-09-02T18:16:06.712Z,18.60
2018-09-02T18:18:33.424Z,18.40
2018-09-02T18:20:59.370Z,18.40
2018-09-02T18:23:26.091Z,18.30
2018-09-02T18:25:52.074Z,18.30
2018-09-02T18:28:18.045Z,18.30
2018-09-02T18:30:44.006Z,18.30
2018-09-02T18:33:09.989Z,18.20
2018-09-02T18:35:35.954Z,18.20
2018-09-02T18:38:01.922Z,18.10
2018-09-02T18:40:27.916Z,18.10
2018-09-02T18:42:53.896Z,18.00
2018-09-02T18:45:20.643Z,17.90
2018-09-02T18:47:47.345Z,17.80
2018-09-02T18:50:13.340Z,17.90
2018-09-02T18:52:39.303Z,17.80
2018-09-02T18:55:05.290Z,17.70
2018-09-02T18:57:31.296Z,17.70
2018-09-02T18:59:57.294Z,17.60
2018-09-02T19:02:23.252Z,17.70
2018-09-02T19:04:49.976Z,17.60
2018-09-02T19:07:15.950Z,17.50
2018-09-02T19:09:41.942Z,17.50
2018-09-02T19:12:07.928Z,17.50
2018-09-02T19:14:34.652Z,17.30
2018-09-02T19:17:01.398Z,17.40
2018-09-02T19:19:27.351Z,17.30
2018-09-02T19:21:53.334Z,17.30
2018-09-02T19:24:19.302Z,17.30
2018-09-02T19:26:45.288Z,17.20
2018-09-02T19:29:11.251Z,17.20
2018-09-02T19:31:37.238Z,17.20
2018-09-02T19:34:03.168Z,17.10
2018-09-02T19:36:29.137Z,17.10
2018-09-02T19:38:55.122Z,17.10
2018-09-02T19:41:21.077Z,17.00
2018-09-02T19:43:47.069Z,17.00
2018-09-02T19:46:13.045Z,17.00
2018-09-02T19:48:39.122Z,17.00
2018-09-02T19:51:05.089Z,16.90
2018-09-02T19:53:31.173Z,16.90
2018-09-02T19:55:57.201Z,16.90
2018-09-02T19:58:23.165Z,16.90
2018-09-02T20:00:49.194Z,16.90
2018-09-02T20:03:15.134Z,16.80
2018-09-02T20:05:41.101Z,16.80
2018-09-02T20:08:07.050Z,16.70
2018-09-02T20:10:33.031Z,16.70
2018-09-02T20:12:59.009Z,16.70
2018-09-02T20:15:24.999Z,16.70
2018-09-02T20:17:50.966Z,16.70
2018-09-02T20:20:16.944Z,16.70
2018-09-02T20:22:42.938Z,16.70
2018-09-02T20:25:08.912Z,16.70
2018-09-02T20:27:34.890Z,16.60
2018-09-02T20:30:01.604Z,16.60
2018-09-02T20:32:27.587Z,16.50
2018-09-02T20:34:53.548Z,16.60
2018-09-02T20:37:20.299Z,16.50
2018-09-02T20:39:46.996Z,16.40
2018-09-02T20:42:12.945Z,16.40
2018-09-02T20:44:38.939Z,16.40
2018-09-02T20:47:04.904Z,16.40
2018-09-02T20:49:31.760Z,16.30
2018-09-02T20:51:57.714Z,16.30
2018-09-02T20:54:23.698Z,16.30
2018-09-02T20:56:50.395Z,16.30
2018-09-02T20:59:16.374Z,16.30
2018-09-02T21:01:42.339Z,16.30
2018-09-02T21:04:08.312Z,16.40
2018-09-02T21:06:34.332Z,16.40
2018-09-02T21:09:01.077Z,16.50
2018-09-02T21:11:27.079Z,16.50
2018-09-02T21:13:53.029Z,16.50
2018-09-02T21:16:19.745Z,16.60
2018-09-02T21:18:45.720Z,16.60
2018-09-02T21:21:11.710Z,16.60
2018-09-02T21:23:37.668Z,16.70
2018-09-02T21:26:03.629Z,16.70
2018-09-02T21:28:30.346Z,16.70
2018-09-02T21:30:56.301Z,16.60
2018-09-02T21:33:23.026Z,16.70
2018-09-02T21:35:48.978Z,16.70
2018-09-02T21:38:15.000Z,16.80
2018-09-02T21:40:41.693Z,16.80
2018-09-02T21:43:07.704Z,16.70
2018-09-02T21:45:33.666Z,16.80
2018-09-02T21:48:00.388Z,16.80
2018-09-02T21:50:26.344Z,16.70
2018-09-02T21:52:53.041Z,16.90
2018-09-02T21:55:19.078Z,16.80
2018-09-02T21:57:45.117Z,16.80
2018-09-02T22:00:11.895Z,16.90
2018-09-02T22:02:38.670Z,16.90
2018-09-02T22:05:04.660Z,16.80
2018-09-02T22:07:30.649Z,16.90
2018-09-02T22:09:56.686Z,16.90
2018-09-02T22:12:23.497Z,17.00
2018-09-02T22:14:49.562Z,17.00
2018-09-02T22:17:15.558Z,17.00
2018-09-02T22:19:41.546Z,16.90
2018-09-02T22:22:07.513Z,17.00
2018-09-02T22:24:33.499Z,17.00
2018-09-02T22:26:59.447Z,17.00
2018-09-02T22:29:25.476Z,17.00
2018-09-02T22:31:51.490Z,17.00
2018-09-02T22:34:17.478Z,17.10
2018-09-02T22:36:43.466Z,17.10
2018-09-02T22:39:10.150Z,17.20
2018-09-02T22:41:36.130Z,17.20
2018-09-02T22:44:02.086Z,17.20
2018-09-02T22:46:28.072Z,17.30
2018-09-02T22:48:54.762Z,17.20
2018-09-02T22:51:20.746Z,17.20
2018-09-02T22:53:46.701Z,17.20
2018-09-02T22:56:12.685Z,17.30
2018-09-02T22:58:38.646Z,17.30
2018-09-02T23:01:04.608Z,17.30
2018-09-02T23:03:31.341Z,17.30
2018-09-02T23:05:57.296Z,17.30
2018-09-02T23:08:23.284Z,17.40
2018-09-02T23:10:49.249Z,17.40
2018-09-02T23:13:15.230Z,17.40
2018-09-02T23:15:41.197Z,17.30
2018-09-02T23:18:07.202Z,17.30
2018-09-02T23:20:33.152Z,17.20
2018-09-02T23:22:59.134Z,17.30
2018-09-02T23:25:25.824Z,17.30
2018-09-02T23:27:51.777Z,17.30
2018-09-02T23:30:17.775Z,17.30
2018-09-02T23:32:43.756Z,17.20
2018-09-02T23:35:10.491Z,17.20
2018-09-02T23:37:36.461Z,17.20
2018-09-02T23:40:02.439Z,17.30
2018-09-02T23:42:28.405Z,17.40
2018-09-02T23:44:54.393Z,17.30
2018-09-02T23:47:20.351Z,17.30
2018-09-02T23:49:46.321Z,17.20
2018-09-02T23:52:12.290Z,17.20
2018-09-02T23:54:38.267Z,17.10
2018-09-02T23:57:04.239Z,17.10
2018-09-02T23:59:30.236Z,17.10
